Time;durP1;ratioP1;P1;durP2;ratioP2;P2;SDS_P1;SDS_P2;PMS_P1;PMS_P2;Temp;Humidity;BMP_temperature;BMP_pressure;BME280_temperature;BME280_humidity;BME280_pressure;Samples;Min_cycle;Max_cycle;Signal;HPM_P1;HPM_P2
2022/06/18 00:01:33;;;;;;;16.05;13.73;;;;;;;;;;6274654;22;20171;-86
2022/06/18 00:04:01;;;;;;;15.75;14.13;;;;;;;;;;6274055;22;20218;-86
2022/06/18 00:06:30;;;;;;;15.45;13.85;;;;;;;;;;6274562;22;20511;-87
2022/06/18 00:08:57;;;;;;;14.35;12.95;;;;;;;;;;6274511;22;20305;-86
2022/06/18 00:16:29;;;;;;;14.23;12.73;;;;;;;;;;5074998;28;20543;-86
2022/06/18 00:18:57;;;;;;;14.27;12.82;;;;;;;;;;5066477;28;20200;-86
2022/06/18 00:21:25;;;;;;;17.50;14.40;;;;;;;;;;5068967;28;20236;-86
2022/06/18 00:23:52;;;;;;;14.13;12.65;;;;;;;;;;5068980;28;20196;-86
2022/06/18 00:26:19;;;;;;;14.82;13.43;;;;;;;;;;5068881;28;20224;-86
2022/06/18 00:28:47;;;;;;;14.55;13.15;;;;;;;;;;5068414;28;20712;-86
2022/06/18 00:31:14;;;;;;;14.98;13.55;;;;;;;;;;5067831;28;20232;-86
2022/06/18 00:33:43;;;;;;;14.93;12.90;;;;;;;;;;5068814;28;20201;-86
2022/06/18 00:36:14;;;;;;;15.52;12.68;;;;;;;;;;5068458;28;20225;-86
2022/06/18 00:38:42;;;;;;;14.15;12.45;;;;;;;;;;5068675;28;20205;-86
2022/06/18 00:41:10;;;;;;;14.27;12.77;;;;;;;;;;5068044;28;20237;-86
2022/06/18 00:43:41;;;;;;;14.88;12.48;;;;;;;;;;5066300;28;20635;-85
2022/06/18 00:46:12;;;;;;;14.20;12.73;;;;;;;;;;5065174;28;20216;-85
2022/06/18 00:48:41;;;;;;;14.07;12.57;;;;;;;;;;5068566;28;20295;-86
2022/06/18 00:51:12;;;;;;;13.90;12.43;;;;;;;;;;5060858;28;20262;-85
2022/06/18 00:53:43;;;;;;;13.52;12.13;;;;;;;;;;5065805;28;20287;-86
2022/06/18 00:56:13;;;;;;;13.27;11.98;;;;;;;;;;5060784;28;20248;-86
2022/06/18 00:58:44;;;;;;;13.50;12.13;;;;;;;;;;5062378;28;20231;-85
2022/06/18 01:01:14;;;;;;;15.75;11.73;;;;;;;;;;5063862;28;20283;-86
2022/06/18 01:03:43;;;;;;;14.68;11.85;;;;;;;;;;5068503;28;20204;-85
2022/06/18 01:06:15;;;;;;;13.68;12.07;;;;;;;;;;5067410;28;20204;-85
2022/06/18 01:08:43;;;;;;;14.07;11.48;;;;;;;;;;5062393;28;20205;-85
2022/06/18 01:11:13;;;;;;;12.75;11.57;;;;;;;;;;5063193;28;20224;-86
2022/06/18 01:13:41;;;;;;;11.38;10.23;;;;;;;;;;5067410;28;20300;-86
2022/06/18 01:16:10;;;;;;;12.30;11.15;;;;;;;;;;5065889;28;20657;-86
2022/06/18 01:18:38;;;;;;;13.07;11.57;;;;;;;;;;5062804;28;20225;-86
2022/06/18 01:21:09;;;;;;;12.00;10.73;;;;;;;;;;5067052;28;20205;-87
2022/06/18 01:23:41;;;;;;;12.27;10.82;;;;;;;;;;5061468;28;20208;-85
2022/06/18 01:26:10;;;;;;;11.52;10.45;;;;;;;;;;5056750;28;20317;-84
2022/06/18 01:28:37;;;;;;;11.57;10.55;;;;;;;;;;5053567;28;20217;-84
2022/06/18 01:31:05;;;;;;;11.07;10.07;;;;;;;;;;5055139;28;20305;-86
2022/06/18 01:33:33;;;;;;;11.35;10.23;;;;;;;;;;5046919;28;20229;-86
2022/06/18 01:36:03;;;;;;;10.68;9.68;;;;;;;;;;5050927;28;20248;-84
2022/06/18 01:38:30;;;;;;;11.05;9.95;;;;;;;;;;5047268;28;20206;-86
2022/06/18 01:41:49;;;;;;;10.95;9.80;;;;;;;;;;5057958;28;20251;-84
2022/06/18 01:43:53;;;;;;;10.27;9.23;;;;;;;;;;5060754;28;20650;-86
2022/06/18 01:46:20;;;;;;;11.13;10.02;;;;;;;;;;5051788;28;20267;-85
2022/06/18 01:48:48;;;;;;;10.65;9.75;;;;;;;;;;5048974;28;20304;-86
2022/06/18 01:51:18;;;;;;;9.80;8.90;;;;;;;;;;5052403;28;20225;-83
2022/06/18 01:53:47;;;;;;;10.00;9.00;;;;;;;;;;5049990;28;20248;-85
2022/06/18 01:56:16;;;;;;;10.30;9.30;;;;;;;;;;5052234;28;20221;-85
2022/06/18 01:58:46;;;;;;;9.82;8.93;;;;;;;;;;5051017;28;20233;-86
2022/06/18 02:01:16;;;;;;;10.27;9.00;;;;;;;;;;5046467;28;20221;-85
2022/06/18 02:03:43;;;;;;;10.15;9.15;;;;;;;;;;5050133;28;20233;-85
2022/06/18 02:06:11;;;;;;;10.27;9.30;;;;;;;;;;5047207;28;20288;-85
2022/06/18 02:08:39;;;;;;;9.90;9.10;;;;;;;;;;5054300;28;20296;-86
2022/06/18 02:11:10;;;;;;;9.77;8.90;;;;;;;;;;5048216;28;20205;-85
2022/06/18 02:13:39;;;;;;;9.57;8.68;;;;;;;;;;5054120;28;20214;-86
2022/06/18 02:16:10;;;;;;;9.40;8.50;;;;;;;;;;5050371;22;20318;-84
2022/06/18 02:18:39;;;;;;;9.65;8.68;;;;;;;;;;5028448;28;20206;-84
2022/06/18 02:21:09;;;;;;;9.00;8.23;;;;;;;;;;5022582;28;20212;-83
2022/06/18 02:23:36;;;;;;;8.65;7.85;;;;;;;;;;5031215;28;20202;-83
2022/06/18 02:26:06;;;;;;;9.35;8.20;;;;;;;;;;5015122;28;20214;-85
2022/06/18 02:28:36;;;;;;;8.52;7.82;;;;;;;;;;5011208;28;20202;-83
2022/06/18 02:31:04;;;;;;;8.20;7.50;;;;;;;;;;5017461;28;20199;-82
2022/06/18 02:33:34;;;;;;;9.25;7.82;;;;;;;;;;5017079;28;20207;-84
2022/06/18 02:36:07;;;;;;;8.52;7.78;;;;;;;;;;5017741;28;20226;-82
2022/06/18 02:38:34;;;;;;;8.68;7.97;;;;;;;;;;5016632;28;20199;-84
2022/06/18 02:41:02;;;;;;;8.23;7.53;;;;;;;;;;5018721;28;20273;-82
2022/06/18 02:43:29;;;;;;;8.80;8.00;;;;;;;;;;5017441;28;20199;-83
2022/06/18 02:45:57;;;;;;;9.10;8.30;;;;;;;;;;5016217;28;20214;-85
2022/06/18 02:48:26;;;;;;;8.70;7.95;;;;;;;;;;5016576;28;20261;-83
2022/06/18 02:50:56;;;;;;;8.10;7.40;;;;;;;;;;5016058;28;20207;-83
2022/06/18 02:53:27;;;;;;;7.55;6.88;;;;;;;;;;5015813;28;20206;-82
2022/06/18 02:55:58;;;;;;;7.90;7.30;;;;;;;;;;5016295;28;20246;-82
2022/06/18 02:58:29;;;;;;;7.90;7.20;;;;;;;;;;5016735;28;20206;-84
2022/06/18 03:00:58;;;;;;;7.55;6.85;;;;;;;;;;5017514;28;20210;-83
2022/06/18 03:03:27;;;;;;;7.63;6.93;;;;;;;;;;5016397;28;20210;-83
2022/06/18 03:05:54;;;;;;;7.90;7.20;;;;;;;;;;5017429;28;20219;-81
2022/06/18 03:08:22;;;;;;;7.10;6.50;;;;;;;;;;5016983;28;20293;-83
2022/06/18 03:13:36;;;;;;;7.47;6.85;;;;;;;;;;5017082;28;20264;-83
2022/06/18 03:16:05;;;;;;;7.88;7.18;;;;;;;;;;5017156;28;20313;-83
2022/06/18 03:18:33;;;;;;;7.22;6.63;;;;;;;;;;5017744;28;20209;-84
2022/06/18 03:21:04;;;;;;;7.57;6.97;;;;;;;;;;5017674;28;20256;-84
2022/06/18 03:23:31;;;;;;;6.90;6.30;;;;;;;;;;5008757;28;20285;-83
2022/06/18 03:26:00;;;;;;;7.35;6.72;;;;;;;;;;5011052;28;20229;-84
2022/06/18 03:28:28;;;;;;;6.80;6.30;;;;;;;;;;5011610;28;20237;-84
2022/06/18 03:30:55;;;;;;;6.65;6.15;;;;;;;;;;5011139;28;20234;-83
2022/06/18 03:33:23;;;;;;;6.50;5.95;;;;;;;;;;5018292;28;20652;-84
2022/06/18 03:35:50;;;;;;;6.95;6.30;;;;;;;;;;5013667;28;20230;-84
2022/06/18 03:38:18;;;;;;;6.65;6.05;;;;;;;;;;5017910;28;20213;-83
2022/06/18 03:40:45;;;;;;;6.90;6.30;;;;;;;;;;5006784;28;20289;-82
2022/06/18 03:43:14;;;;;;;7.05;6.45;;;;;;;;;;5006764;28;20249;-84
2022/06/18 03:45:43;;;;;;;6.63;6.10;;;;;;;;;;5012653;28;20313;-84
2022/06/18 03:48:12;;;;;;;6.63;6.07;;;;;;;;;;5006761;28;20240;-83
2022/06/18 03:50:39;;;;;;;6.28;5.72;;;;;;;;;;5007699;28;20548;-83
2022/06/18 03:53:06;;;;;;;6.30;5.80;;;;;;;;;;5013209;28;20264;-83
2022/06/18 03:55:33;;;;;;;6.22;5.72;;;;;;;;;;5012448;28;20223;-83
2022/06/18 03:58:01;;;;;;;5.75;5.35;;;;;;;;;;5005620;28;20205;-82
2022/06/18 04:00:29;;;;;;;6.10;5.50;;;;;;;;;;5009536;28;20213;-83
2022/06/18 04:02:57;;;;;;;6.20;5.60;;;;;;;;;;5013465;28;20234;-83
2022/06/18 04:05:24;;;;;;;5.80;5.30;;;;;;;;;;5012137;28;20289;-83
2022/06/18 04:07:51;;;;;;;5.97;5.40;;;;;;;;;;5014048;28;20206;-83
2022/06/18 04:10:19;;;;;;;6.07;5.57;;;;;;;;;;5012402;28;20237;-82
2022/06/18 04:12:47;;;;;;;6.00;5.50;;;;;;;;;;5011942;28;20195;-83
2022/06/18 04:15:15;;;;;;;5.40;5.00;;;;;;;;;;5011205;28;20292;-83
2022/06/18 04:17:44;;;;;;;6.10;5.60;;;;;;;;;;5013023;28;20206;-83
2022/06/18 04:20:17;;;;;;;5.55;5.15;;;;;;;;;;5013049;28;20646;-84
2022/06/18 04:22:44;;;;;;;5.78;5.35;;;;;;;;;;5012485;28;20217;-83
2022/06/18 04:25:11;;;;;;;5.57;5.18;;;;;;;;;;5013637;28;20223;-84
2022/06/18 04:27:39;;;;;;;5.70;5.30;;;;;;;;;;5013317;28;20203;-82
2022/06/18 04:30:07;;;;;;;6.00;5.50;;;;;;;;;;5013120;28;20256;-83
2022/06/18 04:32:36;;;;;;;6.00;5.50;;;;;;;;;;5013296;28;20210;-83
2022/06/18 04:35:06;;;;;;;5.38;4.97;;;;;;;;;;5013435;28;20237;-83
2022/06/18 04:37:33;;;;;;;5.93;5.43;;;;;;;;;;5011785;28;20708;-84
2022/06/18 04:40:01;;;;;;;5.25;4.82;;;;;;;;;;5013157;28;20206;-83
2022/06/18 04:42:28;;;;;;;5.68;5.28;;;;;;;;;;5013227;28;20302;-83
2022/06/18 04:44:59;;;;;;;5.53;5.13;;;;;;;;;;5013036;28;20618;-83
2022/06/18 04:47:26;;;;;;;5.22;4.82;;;;;;;;;;5012873;28;20203;-83
2022/06/18 04:49:53;;;;;;;5.50;5.00;;;;;;;;;;5013470;28;20661;-82
2022/06/18 04:52:22;;;;;;;5.43;5.03;;;;;;;;;;5013684;28;20210;-81
2022/06/18 04:54:52;;;;;;;5.97;5.47;;;;;;;;;;5012829;28;20222;-83
2022/06/18 04:57:19;;;;;;;5.47;5.07;;;;;;;;;;5012972;28;20290;-83
2022/06/18 04:59:47;;;;;;;4.78;4.38;;;;;;;;;;5012973;28;20202;-84
2022/06/18 05:02:24;;;;;;;5.38;4.97;;;;;;;;;;5015089;28;20202;-84
2022/06/18 05:04:51;;;;;;;4.95;4.55;;;;;;;;;;5017821;28;20230;-83
2022/06/18 05:07:18;;;;;;;5.00;4.60;;;;;;;;;;5016642;28;20716;-82
2022/06/18 05:09:48;;;;;;;5.00;4.60;;;;;;;;;;5017428;28;20723;-83
2022/06/18 05:12:16;;;;;;;4.70;4.40;;;;;;;;;;5017431;28;20228;-83
2022/06/18 05:14:44;;;;;;;5.00;4.60;;;;;;;;;;5015951;28;20233;-83
2022/06/18 05:17:13;;;;;;;4.88;4.47;;;;;;;;;;5015742;28;20261;-83
2022/06/18 05:19:40;;;;;;;4.97;4.57;;;;;;;;;;5016803;28;20212;-83
2022/06/18 05:22:08;;;;;;;4.57;4.28;;;;;;;;;;5014028;28;20230;-84
2022/06/18 05:24:35;;;;;;;5.18;4.68;;;;;;;;;;5016313;28;20237;-84
2022/06/18 05:27:04;;;;;;;5.20;4.80;;;;;;;;;;5014095;28;20269;-83
2022/06/18 05:29:31;;;;;;;5.00;4.60;;;;;;;;;;5017759;28;20203;-83
2022/06/18 05:32:13;;;;;;;4.55;4.25;;;;;;;;;;5018323;28;20206;-83
2022/06/18 05:34:40;;;;;;;5.70;4.55;;;;;;;;;;5009513;28;20235;-84
2022/06/18 05:37:12;;;;;;;5.28;4.78;;;;;;;;;;5017520;28;20615;-82
2022/06/18 05:39:40;;;;;;;4.85;4.45;;;;;;;;;;5016314;28;20253;-83
2022/06/18 05:42:08;;;;;;;4.50;4.10;;;;;;;;;;5017704;28;20202;-84
2022/06/18 05:44:40;;;;;;;4.75;4.40;;;;;;;;;;5018496;28;20286;-83
2022/06/18 05:47:13;;;;;;;4.18;3.88;;;;;;;;;;5018185;28;20207;-86
2022/06/18 05:49:40;;;;;;;4.63;4.30;;;;;;;;;;5013475;28;20222;-84
2022/06/18 05:52:09;;;;;;;4.40;4.10;;;;;;;;;;5008591;28;20229;-83
2022/06/18 05:54:37;;;;;;;4.00;3.70;;;;;;;;;;5013831;28;20716;-84
2022/06/18 05:57:04;;;;;;;3.75;3.45;;;;;;;;;;5010460;28;20238;-84
2022/06/18 05:59:33;;;;;;;3.70;3.40;;;;;;;;;;5018176;28;20218;-84
2022/06/18 06:02:00;;;;;;;4.32;3.47;;;;;;;;;;5017055;28;20653;-83
2022/06/18 06:04:28;;;;;;;3.20;3.00;;;;;;;;;;5014954;28;20230;-84
2022/06/18 06:06:56;;;;;;;3.10;2.85;;;;;;;;;;5018172;28;20211;-85
2022/06/18 06:12:10;;;;;;;3.08;2.88;;;;;;;;;;5015961;28;20288;-83
2022/06/18 06:14:41;;;;;;;3.10;2.80;;;;;;;;;;5018229;28;20265;-84
2022/06/18 06:17:14;;;;;;;3.45;2.75;;;;;;;;;;5011246;28;20218;-84
2022/06/18 06:19:42;;;;;;;3.20;2.90;;;;;;;;;;5015244;28;20194;-84
2022/06/18 06:22:09;;;;;;;2.92;2.63;;;;;;;;;;5014082;28;20202;-83
2022/06/18 06:24:37;;;;;;;3.15;2.88;;;;;;;;;;5018210;28;20237;-84
2022/06/18 06:27:07;;;;;;;2.90;2.70;;;;;;;;;;5017904;28;20226;-86
2022/06/18 06:29:34;;;;;;;3.00;2.63;;;;;;;;;;5006414;28;20207;-83
2022/06/18 06:32:03;;;;;;;2.78;2.58;;;;;;;;;;5015537;28;20290;-84
2022/06/18 06:34:33;;;;;;;2.75;2.55;;;;;;;;;;5018441;28;20277;-82
2022/06/18 06:37:04;;;;;;;3.10;2.90;;;;;;;;;;5011158;28;20246;-85
2022/06/18 06:39:31;;;;;;;2.88;2.67;;;;;;;;;;5013927;28;20203;-84
2022/06/18 06:41:58;;;;;;;3.22;2.95;;;;;;;;;;5015260;28;20207;-84
2022/06/18 06:44:26;;;;;;;3.42;3.13;;;;;;;;;;5015449;28;20227;-83
2022/06/18 06:46:58;;;;;;;3.17;2.97;;;;;;;;;;5014117;28;20191;-84
2022/06/18 06:49:26;;;;;;;3.40;2.80;;;;;;;;;;5015907;28;20198;-84
2022/06/18 06:51:57;;;;;;;3.08;2.83;;;;;;;;;;5014251;28;20211;-84
2022/06/18 06:54:27;;;;;;;3.63;2.83;;;;;;;;;;5017706;28;20268;-85
2022/06/18 06:59:39;;;;;;;2.50;2.30;;;;;;;;;;5010003;28;20261;-85
2022/06/18 07:02:14;;;;;;;3.67;2.90;;;;;;;;;;5011832;28;20210;-83
2022/06/18 07:04:43;;;;;;;2.75;2.55;;;;;;;;;;5012471;28;20256;-84
2022/06/18 07:07:13;;;;;;;2.90;2.70;;;;;;;;;;5013931;28;20202;-84
2022/06/18 07:09:41;;;;;;;2.72;2.53;;;;;;;;;;5014932;28;20198;-83
2022/06/18 07:12:08;;;;;;;2.83;2.63;;;;;;;;;;5011121;28;20199;-85
2022/06/18 07:14:36;;;;;;;3.00;2.80;;;;;;;;;;5003373;28;20250;-86
2022/06/18 07:17:06;;;;;;;3.35;2.78;;;;;;;;;;5008457;28;20788;-87
2022/06/18 07:19:34;;;;;;;3.35;3.05;;;;;;;;;;5002881;28;20588;-86
2022/06/18 07:22:03;;;;;;;3.20;3.00;;;;;;;;;;5009814;28;20210;-82
2022/06/18 07:24:30;;;;;;;3.30;2.83;;;;;;;;;;5013383;28;20265;-84
2022/06/18 07:26:57;;;;;;;3.08;2.78;;;;;;;;;;5006888;28;20203;-86
2022/06/18 07:29:27;;;;;;;4.70;2.90;;;;;;;;;;5004305;28;20206;-85
2022/06/18 07:31:55;;;;;;;4.13;3.22;;;;;;;;;;5008921;28;20207;-86
2022/06/18 07:34:22;;;;;;;4.55;3.30;;;;;;;;;;5007163;28;20207;-86
2022/06/18 07:36:50;;;;;;;5.40;3.70;;;;;;;;;;5006918;28;20276;-87
2022/06/18 07:39:18;;;;;;;28.80;8.00;;;;;;;;;;5010709;28;20206;-83
2022/06/18 07:41:52;;;;;;;26.60;7.80;;;;;;;;;;5002454;28;20198;-83
2022/06/18 07:44:21;;;;;;;18.20;6.60;;;;;;;;;;5009306;28;20207;-84
2022/06/18 07:46:49;;;;;;;16.02;7.22;;;;;;;;;;5013336;28;20207;-86
2022/06/18 07:52:18;;;;;;;11.15;5.72;;;;;;;;;;5006030;28;20268;-87
2022/06/18 07:54:47;;;;;;;6.22;3.80;;;;;;;;;;5014906;28;20230;-83
2022/06/18 07:57:14;;;;;;;4.10;3.60;;;;;;;;;;5016013;28;20264;-82
2022/06/18 07:59:42;;;;;;;4.88;3.50;;;;;;;;;;5013617;28;20203;-83
2022/06/18 08:02:19;;;;;;;3.85;3.38;;;;;;;;;;5015606;28;20290;-84
2022/06/18 08:04:46;;;;;;;5.85;3.30;;;;;;;;;;5015545;28;20719;-86
2022/06/18 08:07:15;;;;;;;3.90;3.22;;;;;;;;;;5011970;28;20438;-84
2022/06/18 08:09:43;;;;;;;3.63;3.33;;;;;;;;;;5013214;28;20209;-84
2022/06/18 08:12:16;;;;;;;4.07;3.67;;;;;;;;;;5010190;28;20217;-84
2022/06/18 08:17:13;;;;;;;3.35;3.00;;;;;;;;;;5008229;28;20241;-85
2022/06/18 08:19:40;;;;;;;3.33;3.00;;;;;;;;;;5009992;28;20230;-85
2022/06/18 08:22:08;;;;;;;3.53;3.20;;;;;;;;;;5012284;28;20206;-85
2022/06/18 08:24:35;;;;;;;3.25;2.95;;;;;;;;;;5012356;28;20230;-87
2022/06/18 08:27:02;;;;;;;3.70;3.00;;;;;;;;;;5013017;28;20620;-87
2022/06/18 08:29:34;;;;;;;3.35;2.90;;;;;;;;;;5013917;28;20210;-87
2022/06/18 08:32:02;;;;;;;3.25;3.05;;;;;;;;;;5017255;28;20214;-87
2022/06/18 08:34:29;;;;;;;3.38;3.08;;;;;;;;;;5021772;28;20211;-86
2022/06/18 08:36:56;;;;;;;3.97;3.33;;;;;;;;;;5026722;28;20230;-86
2022/06/18 08:39:24;;;;;;;3.03;2.83;;;;;;;;;;5027870;28;20207;-87
2022/06/18 08:42:00;;;;;;;3.00;2.70;;;;;;;;;;5024193;28;20310;-85
2022/06/18 08:44:37;;;;;;;3.63;2.90;;;;;;;;;;5032044;28;20198;-86
2022/06/18 08:47:11;;;;;;;3.72;2.92;;;;;;;;;;5011831;28;20214;-86
2022/06/18 08:49:46;;;;;;;3.67;3.03;;;;;;;;;;5017866;28;20213;-86
2022/06/18 08:52:22;;;;;;;3.10;2.90;;;;;;;;;;5008352;28;20282;-85
2022/06/18 08:54:56;;;;;;;2.83;2.63;;;;;;;;;;5015845;28;20225;-86
2022/06/18 08:57:27;;;;;;;3.22;2.97;;;;;;;;;;5006568;28;20268;-86
2022/06/18 09:00:01;;;;;;;2.88;2.67;;;;;;;;;;5014817;28;20206;-86
2022/06/18 09:02:31;;;;;;;3.00;2.80;;;;;;;;;;5005738;28;20203;-85
2022/06/18 09:05:08;;;;;;;3.33;3.03;;;;;;;;;;5015910;28;20198;-86
2022/06/18 09:07:44;;;;;;;5.75;3.10;;;;;;;;;;5016015;28;20195;-86
2022/06/18 09:10:18;;;;;;;3.40;3.10;;;;;;;;;;5015935;28;20273;-85
2022/06/18 09:12:48;;;;;;;3.28;2.97;;;;;;;;;;5016263;28;20240;-85
2022/06/18 09:15:19;;;;;;;3.10;2.78;;;;;;;;;;5014104;28;20246;-85
2022/06/18 09:17:48;;;;;;;2.90;2.65;;;;;;;;;;5015583;28;20257;-85
2022/06/18 09:20:19;;;;;;;2.90;2.70;;;;;;;;;;5015895;28;20305;-85
2022/06/18 09:22:47;;;;;;;3.00;2.80;;;;;;;;;;5013706;28;20207;-86
2022/06/18 09:25:16;;;;;;;3.13;2.75;;;;;;;;;;5015302;28;20286;-85
2022/06/18 09:27:49;;;;;;;2.58;2.40;;;;;;;;;;5015234;28;20226;-89
2022/06/18 09:30:20;;;;;;;3.00;2.72;;;;;;;;;;5015025;28;20206;-86
2022/06/18 09:32:50;;;;;;;2.70;2.50;;;;;;;;;;5010928;28;20206;-85
2022/06/18 09:35:20;;;;;;;3.03;2.65;;;;;;;;;;5019026;28;20234;-86
2022/06/18 09:37:51;;;;;;;6.05;3.00;;;;;;;;;;5013795;28;20210;-87
2022/06/18 09:40:22;;;;;;;6.00;2.78;;;;;;;;;;5018237;28;20206;-85
2022/06/18 09:42:50;;;;;;;3.17;2.60;;;;;;;;;;5020247;28;20206;-84
2022/06/18 09:45:21;;;;;;;2.50;2.30;;;;;;;;;;5018884;28;20243;-84
2022/06/18 09:47:49;;;;;;;2.20;2.08;;;;;;;;;;5019154;28;20249;-84
2022/06/18 09:50:18;;;;;;;2.50;2.30;;;;;;;;;;5017164;28;20202;-84
2022/06/18 09:52:48;;;;;;;2.45;2.13;;;;;;;;;;5016408;28;20269;-84
2022/06/18 09:55:17;;;;;;;2.50;2.30;;;;;;;;;;5019345;28;20234;-85
2022/06/18 09:57:46;;;;;;;2.75;2.28;;;;;;;;;;5013991;28;20255;-84
2022/06/18 10:00:14;;;;;;;2.58;2.40;;;;;;;;;;5020839;28;20205;-84
2022/06/18 10:02:47;;;;;;;2.33;2.22;;;;;;;;;;5020043;28;20199;-87
2022/06/18 10:08:02;;;;;;;2.58;2.38;;;;;;;;;;5018843;28;20230;-88
2022/06/18 10:10:30;;;;;;;2.40;2.20;;;;;;;;;;5017824;28;20207;-86
2022/06/18 10:12:59;;;;;;;2.58;2.35;;;;;;;;;;5011471;28;20289;-87
2022/06/18 10:15:27;;;;;;;2.47;2.28;;;;;;;;;;5013316;28;20230;-86
2022/06/18 10:17:59;;;;;;;3.83;2.42;;;;;;;;;;5019517;28;20228;-86
2022/06/18 10:20:31;;;;;;;2.42;2.22;;;;;;;;;;5014385;28;20198;-86
2022/06/18 10:23:02;;;;;;;2.35;2.25;;;;;;;;;;5017542;28;20260;-87
2022/06/18 10:25:32;;;;;;;2.90;2.38;;;;;;;;;;5013738;28;20218;-88
2022/06/18 10:28:05;;;;;;;3.38;2.33;;;;;;;;;;5015702;28;20205;-84
2022/06/18 10:30:36;;;;;;;2.55;2.35;;;;;;;;;;5012689;28;20238;-88
2022/06/18 10:33:11;;;;;;;2.53;2.08;;;;;;;;;;5010230;28;20214;-88
2022/06/18 10:35:43;;;;;;;2.53;2.30;;;;;;;;;;5017135;28;20284;-85
2022/06/18 10:38:17;;;;;;;2.63;2.42;;;;;;;;;;5017537;28;20234;-85
2022/06/18 10:40:48;;;;;;;2.42;2.22;;;;;;;;;;5015446;28;20205;-85
2022/06/18 10:43:21;;;;;;;2.85;2.40;;;;;;;;;;5020648;28;20271;-84
2022/06/18 10:45:50;;;;;;;2.55;2.30;;;;;;;;;;5022930;28;20229;-85
2022/06/18 10:48:20;;;;;;;2.47;2.05;;;;;;;;;;5018866;28;20556;-84
2022/06/18 10:50:49;;;;;;;2.50;2.30;;;;;;;;;;5021842;28;20207;-85
2022/06/18 10:53:18;;;;;;;2.30;2.10;;;;;;;;;;5021825;28;20206;-83
2022/06/18 10:55:45;;;;;;;2.38;2.20;;;;;;;;;;5021145;28;20293;-84
2022/06/18 10:58:15;;;;;;;3.15;2.03;;;;;;;;;;5016268;28;20215;-85
2022/06/18 11:00:45;;;;;;;2.35;2.25;;;;;;;;;;5017011;28;20209;-86
2022/06/18 11:03:20;;;;;;;2.50;2.30;;;;;;;;;;5019779;28;20207;-85
2022/06/18 11:05:48;;;;;;;2.33;2.22;;;;;;;;;;5014081;28;20258;-85
2022/06/18 11:08:25;;;;;;;2.60;2.40;;;;;;;;;;5013952;28;20206;-85
2022/06/18 11:10:56;;;;;;;2.90;2.47;;;;;;;;;;5015239;28;20207;-86
2022/06/18 11:13:27;;;;;;;3.53;2.40;;;;;;;;;;5007416;28;20199;-82
2022/06/18 11:16:04;;;;;;;2.33;2.13;;;;;;;;;;5009749;28;20234;-83
2022/06/18 11:18:33;;;;;;;2.28;2.08;;;;;;;;;;5018188;28;20312;-85
2022/06/18 11:21:03;;;;;;;2.40;2.17;;;;;;;;;;5017288;28;20211;-85
2022/06/18 11:23:31;;;;;;;2.35;2.15;;;;;;;;;;5014066;28;20223;-84
2022/06/18 11:25:59;;;;;;;2.25;2.10;;;;;;;;;;5016670;28;20227;-84
2022/06/18 11:28:29;;;;;;;2.17;1.98;;;;;;;;;;5011449;28;20237;-84
2022/06/18 11:30:57;;;;;;;2.70;2.20;;;;;;;;;;5020888;28;20262;-84
2022/06/18 11:33:27;;;;;;;2.05;1.95;;;;;;;;;;5013550;28;20203;-84
2022/06/18 11:35:55;;;;;;;2.13;1.92;;;;;;;;;;5022000;28;20226;-83
2022/06/18 11:38:28;;;;;;;3.17;1.90;;;;;;;;;;5014036;28;20654;-84
2022/06/18 11:40:56;;;;;;;2.67;2.10;;;;;;;;;;5016112;28;20285;-84
2022/06/18 11:43:30;;;;;;;2.00;1.83;;;;;;;;;;5013497;28;20218;-84
2022/06/18 11:46:00;;;;;;;2.42;1.75;;;;;;;;;;5018547;28;20282;-83
2022/06/18 11:48:30;;;;;;;2.85;2.03;;;;;;;;;;5011285;28;20198;-84
2022/06/18 11:51:01;;;;;;;3.08;2.08;;;;;;;;;;5016512;28;20210;-84
2022/06/18 11:53:32;;;;;;;2.05;1.90;;;;;;;;;;5017534;28;20245;-84
2022/06/18 11:56:00;;;;;;;2.30;2.10;;;;;;;;;;5017897;28;20257;-85
2022/06/18 11:58:32;;;;;;;2.63;2.17;;;;;;;;;;5015415;28;20234;-86
2022/06/18 12:01:04;;;;;;;2.63;2.38;;;;;;;;;;5009732;28;20297;-86
2022/06/18 12:03:35;;;;;;;1.85;1.75;;;;;;;;;;5010789;28;20266;-86
2022/06/18 12:06:07;;;;;;;3.85;2.05;;;;;;;;;;5006166;28;20226;-85
2022/06/18 12:08:34;;;;;;;3.65;2.28;;;;;;;;;;5010100;28;20195;-87
2022/06/18 12:11:06;;;;;;;2.58;2.30;;;;;;;;;;5009284;28;20207;-86
2022/06/18 12:13:36;;;;;;;3.15;1.90;;;;;;;;;;5011927;28;20202;-86
2022/06/18 12:16:07;;;;;;;2.45;2.22;;;;;;;;;;5012035;28;20604;-85
2022/06/18 12:18:37;;;;;;;3.15;2.20;;;;;;;;;;5005406;28;20222;-85
2022/06/18 12:21:11;;;;;;;3.95;2.20;;;;;;;;;;5015593;28;20260;-85
2022/06/18 12:23:44;;;;;;;4.32;2.10;;;;;;;;;;5014362;28;20285;-85
2022/06/18 12:26:17;;;;;;;3.78;2.25;;;;;;;;;;5008378;28;20214;-85
2022/06/18 12:28:50;;;;;;;3.20;2.10;;;;;;;;;;5012952;28;20198;-86
2022/06/18 12:31:20;;;;;;;3.50;1.90;;;;;;;;;;5015722;28;20202;-86
2022/06/18 12:33:50;;;;;;;4.28;2.05;;;;;;;;;;5007897;28;20214;-85
2022/06/18 12:36:21;;;;;;;3.72;2.10;;;;;;;;;;5013023;28;20273;-86
2022/06/18 12:38:58;;;;;;;5.20;2.20;;;;;;;;;;5012278;28;20272;-86
2022/06/18 12:41:39;;;;;;;4.60;2.60;;;;;;;;;;5012951;28;20222;-85
2022/06/18 12:44:11;;;;;;;4.63;2.10;;;;;;;;;;5013592;28;20270;-86
2022/06/18 12:46:43;;;;;;;4.40;2.05;;;;;;;;;;5014005;28;20223;-86
2022/06/18 12:49:14;;;;;;;3.38;2.17;;;;;;;;;;5011378;28;20289;-86
2022/06/18 12:51:47;;;;;;;2.60;2.30;;;;;;;;;;5012980;28;20202;-85
2022/06/18 12:54:25;;;;;;;4.32;2.42;;;;;;;;;;5009559;28;20199;-84
2022/06/18 12:56:59;;;;;;;4.97;2.50;;;;;;;;;;5009451;28;20277;-88
2022/06/18 12:59:32;;;;;;;5.47;2.45;;;;;;;;;;5015515;28;20292;-85
2022/06/18 13:02:04;;;;;;;5.47;2.45;;;;;;;;;;5015358;28;20207;-86
2022/06/18 13:04:38;;;;;;;4.97;2.53;;;;;;;;;;5017654;28;20233;-85
2022/06/18 13:07:12;;;;;;;6.25;2.75;;;;;;;;;;5007997;28;20297;-84
2022/06/18 13:09:43;;;;;;;7.00;2.75;;;;;;;;;;5013593;28;20199;-86
2022/06/18 13:12:18;;;;;;;4.50;2.53;;;;;;;;;;5009450;28;20218;-87
2022/06/18 13:14:53;;;;;;;5.63;2.88;;;;;;;;;;5014949;28;20237;-85
2022/06/18 13:17:27;;;;;;;5.63;2.67;;;;;;;;;;5009587;28;20210;-85
2022/06/18 13:19:57;;;;;;;5.35;2.95;;;;;;;;;;5018629;28;20218;-84
2022/06/18 13:22:27;;;;;;;7.85;3.00;;;;;;;;;;5020620;28;20230;-83
2022/06/18 13:28:12;;;;;;;6.45;3.03;;;;;;;;;;4983930;28;20202;-84
2022/06/18 13:30:44;;;;;;;7.53;2.88;;;;;;;;;;5015683;28;20301;-83
2022/06/18 13:33:14;;;;;;;5.28;2.72;;;;;;;;;;5024653;28;20265;-84
2022/06/18 13:35:45;;;;;;;5.78;2.95;;;;;;;;;;5017376;28;20216;-83
2022/06/18 13:38:17;;;;;;;4.20;2.47;;;;;;;;;;5020411;28;20207;-85
2022/06/18 13:40:48;;;;;;;5.30;3.00;;;;;;;;;;5022674;28;20202;-84
2022/06/18 13:43:18;;;;;;;6.72;2.80;;;;;;;;;;5016744;28;20689;-84
2022/06/18 13:45:51;;;;;;;5.70;3.03;;;;;;;;;;5021375;28;20229;-83
2022/06/18 13:48:27;;;;;;;6.00;3.08;;;;;;;;;;5015736;28;20245;-84
2022/06/18 13:50:55;;;;;;;6.80;3.00;;;;;;;;;;5016274;28;20238;-84
2022/06/18 13:53:25;;;;;;;5.90;3.00;;;;;;;;;;5013963;28;20293;-84
2022/06/18 13:55:52;;;;;;;7.40;3.20;;;;;;;;;;5017405;28;20227;-83
2022/06/18 13:58:21;;;;;;;7.00;2.90;;;;;;;;;;5012879;28;20246;-84
2022/06/18 14:00:48;;;;;;;8.40;3.13;;;;;;;;;;5017500;28;20210;-84
2022/06/18 14:03:19;;;;;;;6.60;2.90;;;;;;;;;;5018323;28;20237;-84
2022/06/18 14:05:48;;;;;;;5.28;2.60;;;;;;;;;;5020600;28;20226;-84
2022/06/18 14:08:28;;;;;;;7.85;3.10;;;;;;;;;;5018922;28;20210;-83
2022/06/18 14:10:56;;;;;;;6.35;3.20;;;;;;;;;;5018492;28;20202;-84
2022/06/18 14:13:25;;;;;;;7.97;3.08;;;;;;;;;;5016688;28;20245;-84
2022/06/18 14:15:59;;;;;;;7.28;3.10;;;;;;;;;;5043930;22;20226;-83
2022/06/18 14:18:27;;;;;;;6.88;2.90;;;;;;;;;;5034940;28;20263;-83
2022/06/18 14:20:56;;;;;;;7.28;3.00;;;;;;;;;;5036997;28;20198;-83
2022/06/18 14:23:28;;;;;;;6.05;3.00;;;;;;;;;;5034764;28;20202;-84
2022/06/18 14:26:01;;;;;;;5.45;2.85;;;;;;;;;;5034145;28;20221;-82
2022/06/18 14:28:31;;;;;;;6.65;3.47;;;;;;;;;;5033114;28;20256;-84
2022/06/18 14:31:03;;;;;;;6.32;3.00;;;;;;;;;;5035171;28;20198;-84
2022/06/18 14:33:34;;;;;;;7.57;2.90;;;;;;;;;;5035585;28;20214;-83
2022/06/18 14:36:06;;;;;;;4.70;3.20;;;;;;;;;;5033347;28;20221;-82
2022/06/18 14:38:41;;;;;;;5.03;3.30;;;;;;;;;;5035942;28;20206;-82
2022/06/18 14:44:03;;;;;;;7.90;3.15;;;;;;;;;;5037257;28;20666;-83
2022/06/18 14:46:42;;;;;;;7.28;3.42;;;;;;;;;;5037942;28;20271;-84
2022/06/18 14:49:19;;;;;;;7.10;2.97;;;;;;;;;;5037221;28;20228;-86
2022/06/18 14:52:02;;;;;;;5.07;3.30;;;;;;;;;;5038628;28;20201;-84
2022/06/18 14:54:45;;;;;;;4.05;2.75;;;;;;;;;;5038221;28;20202;-83
2022/06/18 14:57:29;;;;;;;4.78;3.20;;;;;;;;;;5039998;28;20226;-83
2022/06/18 15:00:14;;;;;;;6.70;3.20;;;;;;;;;;5039249;28;20225;-84
2022/06/18 15:02:43;;;;;;;4.97;3.17;;;;;;;;;;5037235;28;20198;-82
2022/06/18 15:05:16;;;;;;;8.40;3.15;;;;;;;;;;5035263;28;20702;-84
2022/06/18 15:07:46;;;;;;;6.15;3.35;;;;;;;;;;5035734;28;20281;-85
2022/06/18 15:10:19;;;;;;;4.75;3.30;;;;;;;;;;5036115;28;20240;-84
2022/06/18 15:12:58;;;;;;;5.50;2.97;;;;;;;;;;5034729;28;20197;-85
2022/06/18 15:15:34;;;;;;;7.13;3.28;;;;;;;;;;5032739;28;20216;-84
2022/06/18 15:18:18;;;;;;;5.72;3.35;;;;;;;;;;5033625;28;20706;-84
2022/06/18 15:20:54;;;;;;;5.97;3.40;;;;;;;;;;5035034;28;20214;-84
2022/06/18 15:23:33;;;;;;;7.20;3.40;;;;;;;;;;5035085;28;20234;-85
2022/06/18 15:26:09;;;;;;;5.72;3.13;;;;;;;;;;5032454;28;20280;-84